Posey, Illinois
Current Conditions -  °F | °C
As of 1:55 PM on Sunday 23 Nov 2014 (Local Time) from KENL Reporting Station
Light Rain Light Rain  
Wind Chill: 52°   Ceiling: 2200
Heat Index: 52°   Visibility: 7mi
Dew Point: 49°   Wind: 10mph
Humidity: 89%   Direction: 130°SE
Pressure: 29.46"   Gusts: NA
Location:  38.5905°N, 89.3709°W
Report Text: KENL 231955Z AUTO 13009KT 7SM -RA SCT009 OVC022 11/09 A2946 RMK AO2 P0003 T01100093
Loading
Personal Weather Stations






























Interactive Weather Map New forecast layout! Learn more

10-Day Weather Forecast

Advertisements
Track Severe Weather on mobile